Terminal Aerodrome Forecast
Issued by NWS

Home | Current Version | Previous Version | Text Only | Print | Product List | Glossary On
Versions: 1 2 3 4 5 6 7 8 9 10 11 12 13 14
000
FTUS41 KBTV 280528
TAFMPV
TAF
KMPV 280528Z 2806/2906 36010G18KT P6SM OVC025
     FM280900 33006KT P6SM OVC040
     FM281100 34010G18KT P6SM OVC045
     FM282300 32006KT P6SM BKN050=

USA.gov is the U.S. government's official web portal to all federal, state and local government web resources and services.